createdAt,value
2022-10-28T06:13:48.037Z,29.00
2022-10-28T06:16:28.417Z,29.40
2022-10-28T06:19:05.268Z,34.07
2022-10-28T06:21:42.513Z,33.60
2022-10-28T06:24:19.647Z,33.77
2022-10-28T06:26:56.801Z,29.97
2022-10-28T06:29:33.802Z,32.83
2022-10-28T06:32:15.226Z,30.13
2022-10-28T06:34:52.244Z,31.67
2022-10-28T06:37:29.178Z,34.57
2022-10-28T06:40:07.410Z,30.30
2022-10-28T06:42:44.408Z,34.10
2022-10-28T06:45:21.755Z,34.33
2022-10-28T06:48:05.659Z,32.53
2022-10-28T06:50:45.597Z,36.33
2022-10-28T06:53:23.443Z,33.73
2022-10-28T06:56:01.630Z,32.63
2022-10-28T06:58:38.848Z,36.97
2022-10-28T07:01:17.975Z,33.90
2022-10-28T07:03:57.273Z,36.40
2022-10-28T07:06:34.411Z,35.73
2022-10-28T07:09:12.704Z,35.83
2022-10-28T07:11:55.129Z,35.17
2022-10-28T07:14:35.115Z,40.67
2022-10-28T07:17:12.261Z,35.93
2022-10-28T07:19:51.702Z,37.17
2022-10-28T07:22:28.922Z,37.20
2022-10-28T07:25:05.820Z,41.40
2022-10-28T07:27:43.494Z,37.33
2022-10-28T07:30:20.594Z,38.60
2022-10-28T07:33:01.207Z,40.13
2022-10-28T07:35:40.886Z,41.53
2022-10-28T07:38:18.176Z,37.07
2022-10-28T07:40:54.909Z,43.00
2022-10-28T07:43:32.660Z,42.80
2022-10-28T07:46:10.818Z,41.07
2022-10-28T07:48:48.427Z,41.53
2022-10-28T07:51:28.230Z,40.45
2022-10-28T07:54:05.357Z,41.70
2022-10-28T07:56:42.138Z,41.53
2022-10-28T07:59:25.856Z,47.60
2022-10-28T08:02:03.964Z,43.60
2022-10-28T08:04:41.255Z,47.22
2022-10-28T08:07:21.561Z,42.42
2022-10-28T08:09:58.638Z,41.05
2022-10-28T08:12:35.687Z,45.40
2022-10-28T08:15:15.236Z,43.13
2022-10-28T08:17:55.790Z,45.95
2022-10-28T08:20:33.109Z,46.28
2022-10-28T08:23:12.446Z,50.53
2022-10-28T08:25:53.865Z,46.10
2022-10-28T08:28:30.906Z,46.75
2022-10-28T08:31:12.731Z,47.85
2022-10-28T08:33:49.656Z,45.30
2022-10-28T08:36:26.753Z,46.20
2022-10-28T08:39:06.355Z,46.05
2022-10-28T08:41:52.167Z,41.95
2022-10-28T08:44:55.625Z,40.28
2022-10-28T08:47:45.013Z,46.90
2022-10-28T08:50:25.228Z,46.50
2022-10-28T08:53:09.998Z,43.00
2022-10-28T08:55:54.118Z,40.70
2022-10-28T08:58:36.543Z,39.15
2022-10-28T09:01:24.641Z,42.30
2022-10-28T09:04:08.799Z,37.53
2022-10-28T09:06:45.509Z,40.72
2022-10-28T09:09:26.168Z,44.13
2022-10-28T09:12:30.813Z,38.67
2022-10-28T09:15:27.945Z,34.83
2022-10-28T09:18:18.471Z,30.98
2022-10-28T09:20:58.892Z,27.42
2022-10-28T09:23:40.440Z,39.72
2022-10-28T09:26:35.956Z,24.70
2022-10-28T09:29:37.195Z,27.08
2022-10-28T09:35:06.765Z,21.58
2022-10-28T09:37:50.041Z,19.85
2022-10-28T09:40:33.788Z,20.27
2022-10-28T09:43:23.509Z,19.40
2022-10-28T09:46:07.590Z,25.15
2022-10-28T09:48:49.291Z,17.15
2022-10-28T09:51:36.539Z,16.88
2022-10-28T09:54:16.369Z,17.92
2022-10-28T09:56:55.705Z,17.27
2022-10-28T09:59:33.259Z,15.98
2022-10-28T10:02:31.228Z,15.63
2022-10-28T10:05:18.070Z,14.68
2022-10-28T10:07:59.701Z,14.32
2022-10-28T10:10:49.270Z,17.13
2022-10-28T10:13:31.372Z,14.25
2022-10-28T10:16:19.183Z,16.50
2022-10-28T10:19:04.260Z,13.77
2022-10-28T10:21:49.589Z,16.40
2022-10-28T10:24:34.439Z,14.57
2022-10-28T10:27:22.603Z,16.20
2022-10-28T10:29:59.828Z,18.30
2022-10-28T10:32:37.568Z,14.00
2022-10-28T10:35:27.504Z,13.00
2022-10-28T10:38:08.646Z,13.25
2022-10-28T10:40:53.527Z,15.52
2022-10-28T10:43:36.697Z,14.55
2022-10-28T10:46:20.391Z,17.58
2022-10-28T10:49:16.130Z,15.70
2022-10-28T10:52:01.570Z,17.52
2022-10-28T10:54:41.112Z,18.52
2022-10-28T10:57:23.872Z,17.17
2022-10-28T11:00:01.686Z,14.30
2022-10-28T11:02:43.153Z,16.58
2022-10-28T11:05:29.263Z,15.43
2022-10-28T11:08:42.972Z,11.73
2022-10-28T11:11:25.845Z,13.10
2022-10-28T11:14:09.660Z,15.38
2022-10-28T11:16:54.874Z,12.52
2022-10-28T11:19:35.112Z,12.00
2022-10-28T11:22:30.809Z,14.10
2022-10-28T11:25:39.582Z,14.02
2022-10-28T11:28:40.844Z,14.13
2022-10-28T11:32:00.435Z,13.20
2022-10-28T11:34:56.724Z,13.02
2022-10-28T11:37:52.791Z,16.27
2022-10-28T11:40:42.701Z,15.38
2022-10-28T11:43:31.539Z,15.02
2022-10-28T11:46:19.203Z,15.07
2022-10-28T11:50:02.783Z,15.40
2022-10-28T11:53:00.522Z,17.02
2022-10-28T11:55:46.357Z,22.95
2022-10-28T11:58:37.515Z,19.05
2022-10-28T12:01:35.091Z,15.38
2022-10-28T12:04:26.756Z,14.45
2022-10-28T12:07:24.369Z,17.60
2022-10-28T12:10:35.210Z,14.63
2022-10-28T12:13:24.154Z,16.40
2022-10-28T12:16:10.606Z,16.77
2022-10-28T12:18:56.677Z,16.33
2022-10-28T12:21:38.629Z,14.25
2022-10-28T12:24:20.469Z,16.17
2022-10-28T12:27:01.436Z,16.35
2022-10-28T12:29:46.847Z,15.32
2022-10-28T12:32:29.367Z,16.70
2022-10-28T12:35:15.854Z,14.68
2022-10-28T12:38:01.903Z,14.57
2022-10-28T12:40:47.394Z,15.48
2022-10-28T12:43:29.055Z,14.77
2022-10-28T12:46:13.473Z,14.88
2022-10-28T12:48:58.635Z,15.07
2022-10-28T12:51:41.964Z,13.80
2022-10-28T12:54:31.350Z,14.38
2022-10-28T12:57:16.546Z,13.77
2022-10-28T13:00:00.867Z,18.67
2022-10-28T13:02:49.902Z,15.65
2022-10-28T13:05:33.115Z,15.25
2022-10-28T13:09:13.323Z,11.93
2022-10-28T13:12:33.303Z,15.32
2022-10-28T13:15:55.821Z,16.25
2022-10-28T13:19:02.502Z,13.05
2022-10-28T13:22:09.912Z,15.48
2022-10-28T13:24:59.703Z,16.27
2022-10-28T13:30:35.631Z,10.75
2022-10-28T13:33:21.605Z,11.30
2022-10-28T13:36:21.753Z,13.23
2022-10-28T13:39:01.721Z,13.88
2022-10-28T13:41:43.542Z,14.15
2022-10-28T13:44:49.728Z,14.90
2022-10-28T13:47:35.252Z,14.65
2022-10-28T13:50:38.269Z,11.57
2022-10-28T13:53:56.943Z,11.77
2022-10-28T13:56:49.911Z,14.48
2022-10-28T13:59:36.640Z,12.15
2022-10-28T14:02:35.151Z,12.57
2022-10-28T14:05:15.819Z,14.68
2022-10-28T14:07:59.007Z,15.63
2022-10-28T14:10:41.701Z,17.50
2022-10-28T14:13:24.391Z,14.75
2022-10-28T14:16:29.496Z,13.90
2022-10-28T14:19:18.331Z,15.38
2022-10-28T14:22:03.251Z,15.73
2022-10-28T14:24:42.631Z,13.73
2022-10-28T14:27:43.737Z,18.65
2022-10-28T14:30:27.081Z,19.98
2022-10-28T14:33:24.510Z,15.93
2022-10-28T14:36:33.499Z,20.45
2022-10-28T14:39:38.831Z,16.08
2022-10-28T14:42:36.889Z,17.40
2022-10-28T14:45:33.588Z,18.67
2022-10-28T14:48:48.880Z,15.43
2022-10-28T14:51:29.511Z,16.25
2022-10-28T14:54:11.637Z,19.15
2022-10-28T14:56:49.978Z,17.38
2022-10-28T14:59:36.347Z,19.50
2022-10-28T15:02:19.209Z,17.90
2022-10-28T15:05:07.831Z,18.55
2022-10-28T15:07:45.916Z,17.20
2022-10-28T15:10:30.167Z,16.17
2022-10-28T15:13:07.538Z,20.52
2022-10-28T15:15:59.322Z,22.65
2022-10-28T15:18:39.389Z,18.55
2022-10-28T15:21:21.137Z,16.58
2022-10-28T15:24:07.416Z,16.05
2022-10-28T15:26:44.436Z,20.20
2022-10-28T15:29:21.675Z,22.70
2022-10-28T15:32:17.509Z,21.27
2022-10-28T15:34:54.624Z,17.95
2022-10-28T15:37:34.035Z,19.08
2022-10-28T15:40:30.257Z,21.33
2022-10-28T15:43:09.156Z,23.58
2022-10-28T15:45:46.385Z,23.30
2022-10-28T15:48:30.475Z,22.38
2022-10-28T15:51:19.214Z,22.38
2022-10-28T15:53:57.107Z,20.52
2022-10-28T15:56:34.706Z,21.63
2022-10-28T15:59:23.545Z,20.77
2022-10-28T16:02:02.015Z,17.80
2022-10-28T16:04:48.048Z,17.63
2022-10-28T16:07:25.299Z,19.83
2022-10-28T16:10:02.165Z,16.98
2022-10-28T16:12:39.407Z,20.95
2022-10-28T16:15:19.397Z,24.08
2022-10-28T16:17:57.829Z,21.42
2022-10-28T16:20:38.246Z,18.65
2022-10-28T16:23:20.956Z,19.63
2022-10-28T16:28:38.157Z,20.73
2022-10-28T16:31:21.050Z,19.05
2022-10-28T16:33:58.634Z,17.98
2022-10-28T16:36:39.025Z,17.38
2022-10-28T16:39:17.425Z,20.67
2022-10-28T16:41:56.888Z,21.17
2022-10-28T16:44:34.985Z,24.70
2022-10-28T16:47:16.127Z,19.83
2022-10-28T16:49:57.248Z,22.55
2022-10-28T16:52:39.387Z,22.33
2022-10-28T16:55:20.488Z,21.15
2022-10-28T16:57:57.653Z,17.27
2022-10-28T17:00:36.634Z,18.45
2022-10-28T17:03:17.836Z,21.70
2022-10-28T17:05:55.894Z,18.88
2022-10-28T17:09:01.282Z,18.23
2022-10-28T17:11:34.861Z,20.45
2022-10-28T17:14:12.298Z,22.65
2022-10-28T17:16:50.623Z,22.25
2022-10-28T17:19:28.626Z,21.25
2022-10-28T17:22:09.217Z,21.98
2022-10-28T17:24:50.321Z,22.30
2022-10-28T17:27:29.300Z,25.65
2022-10-28T17:30:07.980Z,21.70
2022-10-28T17:32:45.585Z,24.45
2022-10-28T17:35:29.486Z,24.73
2022-10-28T17:38:06.645Z,22.27
2022-10-28T17:40:46.455Z,22.67
2022-10-28T17:43:24.584Z,22.50
2022-10-28T17:46:08.241Z,24.58
2022-10-28T17:48:45.736Z,24.67
2022-10-28T17:51:25.491Z,27.55
2022-10-28T17:54:03.068Z,29.42
2022-10-28T17:56:42.682Z,28.33
2022-10-28T17:59:20.257Z,25.80
2022-10-28T18:01:57.732Z,28.38
2022-10-28T18:04:35.461Z,30.25
2022-10-28T18:07:12.888Z,26.50
2022-10-28T18:09:50.377Z,29.10
2022-10-28T18:12:30.129Z,30.33
2022-10-28T18:15:10.315Z,32.65
2022-10-28T18:17:48.127Z,31.25
2022-10-28T18:20:25.610Z,38.10
2022-10-28T18:23:03.360Z,32.20
2022-10-28T18:25:42.075Z,33.85
2022-10-28T18:28:24.118Z,34.78
2022-10-28T18:31:05.941Z,37.85
2022-10-28T18:33:44.107Z,34.63
2022-10-28T18:36:24.473Z,33.33
2022-10-28T18:39:02.199Z,30.65
2022-10-28T18:41:43.450Z,31.75
2022-10-28T18:44:27.800Z,32.78
2022-10-28T18:47:08.348Z,33.38
2022-10-28T18:49:45.847Z,33.92
2022-10-28T18:52:23.456Z,32.88
2022-10-28T18:55:01.468Z,36.72
2022-10-28T18:57:39.577Z,38.72
2022-10-28T19:00:21.345Z,35.08
2022-10-28T19:03:02.854Z,33.72
2022-10-28T19:05:40.048Z,30.40
2022-10-28T19:08:17.498Z,36.85
2022-10-28T19:10:59.829Z,34.33
2022-10-28T19:13:39.589Z,33.58
2022-10-28T19:16:21.726Z,39.63
2022-10-28T19:19:01.119Z,39.90
2022-10-28T19:21:39.259Z,35.88
2022-10-28T19:24:22.443Z,39.92
2022-10-28T19:27:02.388Z,37.03
2022-10-28T19:29:40.362Z,36.97
2022-10-28T19:32:25.367Z,37.95
2022-10-28T19:35:05.431Z,43.05
2022-10-28T19:37:43.263Z,36.05
2022-10-28T19:40:21.021Z,36.72
2022-10-28T19:42:58.337Z,40.17
2022-10-28T19:45:35.848Z,38.25
2022-10-28T19:48:18.447Z,38.35
2022-10-28T19:50:59.878Z,43.80
2022-10-28T19:53:37.636Z,35.70
2022-10-28T19:56:19.707Z,34.05
2022-10-28T19:58:59.889Z,35.58
2022-10-28T20:01:41.282Z,43.88
2022-10-28T20:04:21.919Z,37.80
2022-10-28T20:07:00.828Z,39.22
2022-10-28T20:09:38.259Z,38.05
2022-10-28T20:12:16.486Z,43.95
2022-10-28T20:14:53.292Z,39.03
2022-10-28T20:17:31.088Z,46.85
2022-10-28T20:20:14.554Z,42.85
2022-10-28T20:25:31.358Z,44.80
2022-10-28T20:28:10.768Z,46.88
2022-10-28T20:30:48.648Z,47.55
2022-10-28T20:33:27.268Z,45.80
2022-10-28T20:36:08.898Z,45.58
2022-10-28T20:38:46.229Z,43.90
2022-10-28T20:41:23.278Z,43.38
2022-10-28T20:44:01.449Z,42.95
